PWSweather.com
Personal Weather Stations
Station Observations
ME1989
Sicily, Barcellona Pozzo Di GottoIT

SicilyBarcellona Pozzo Di GottoIT

Lat: 38.1487398, Lon: 15.2113962

Elevation: 131

Station Type: Peet Bros

Latest ConditionsUpdated 5:30:09 AM GMT+01:01 Saturday, Nov 1, 2014
Currently Today's Max Today's Min Today's Average
Temperature 57.4°F14.1°C 59.1°F15.1°C 57.4°F14.1°C 58.2°F14.6°C
Dew Point 50.6°F10.3°C 51.6°F10.9°C 50.6°F10.3°C 51.0°F10.6°C
Winds 3.3 mph S5.3 kmh S 5.4 mph S8.7 kmh S - 4.1 mph 6.6 kmh
Wind Gusts 4.4 mph7.1 kmh 6.7 mph10.8 kmh - -
Humidity 78% 78% 76% 77%
Pressure 30.14 in1020.7 mb 30.14 in1020.7 mb 30.13 in1020.3 mb -
Hour Temp Dew Point Humidity Winds Wind Gusts Pressure Precip Precip Rate Daily Precip Total
05:30 AM 57.4°F14.1°C 50.6°F10.3°C 78% 3.3 mph S5.3 kmh S 4.4 mph7.1 kmh 30.14 in1020.7 mb 0.00 in0.0 mm 0.00 in/hr0.0 mm/hr 0.00 in0.0 mm
05:20 AM 57.9°F14.4°C 50.7°F10.4°C 77% 1.4 mph S2.3 kmh S 4.0 mph6.4 kmh 30.14 in1020.7 mb 0.00 in0.0 mm 0.00 in/hr0.0 mm/hr 0.00 in0.0 mm
05:10 AM 58.0°F14.4°C 50.8°F10.4°C 77% 3.8 mph S6.1 kmh S 4.7 mph7.6 kmh 30.14 in1020.7 mb 0.00 in0.0 mm 0.00 in/hr0.0 mm/hr 0.00 in0.0 mm
05:00 AM 58.0°F14.4°C 50.9°F10.5°C 77% 3.6 mph S5.8 kmh S 4.4 mph7.1 kmh 30.14 in1020.7 mb 0.00 in0.0 mm 0.00 in/hr0.0 mm/hr 0.00 in0.0 mm
04:50 AM 57.9°F14.4°C 51.1°F10.6°C 78% 4.4 mph S7.1 kmh S 5.7 mph9.2 kmh 30.14 in1020.7 mb 0.00 in0.0 mm 0.00 in/hr0.0 mm/hr 0.00 in0.0 mm
04:40 AM 57.6°F14.2°C 50.7°F10.4°C 78% 5.4 mph S8.7 kmh S 6.3 mph10.1 kmh 30.14 in1020.7 mb 0.00 in0.0 mm 0.00 in/hr0.0 mm/hr 0.00 in0.0 mm
04:30 AM 57.7°F14.3°C 50.9°F10.5°C 78% 4.4 mph S7.1 kmh S 5.2 mph8.4 kmh 30.14 in1020.7 mb 0.00 in0.0 mm 0.00 in/hr0.0 mm/hr 0.00 in0.0 mm
04:20 AM 57.7°F14.3°C 50.9°F10.5°C 78% 5.2 mph S8.4 kmh S 5.8 mph9.3 kmh 30.13 in1020.3 mb 0.00 in0.0 mm 0.00 in/hr0.0 mm/hr 0.00 in0.0 mm
04:10 AM 57.9°F14.4°C 51.1°F10.6°C 78% 4.3 mph S6.9 kmh S 5.0 mph8.0 kmh 30.13 in1020.3 mb 0.00 in0.0 mm 0.00 in/hr0.0 mm/hr 0.00 in0.0 mm
04:00 AM 58.0°F14.4°C 51.2°F10.7°C 78% 5.0 mph S8.0 kmh S 5.5 mph8.9 kmh 30.13 in1020.3 mb 0.00 in0.0 mm 0.00 in/hr0.0 mm/hr 0.00 in0.0 mm
03:50 AM 57.9°F14.4°C 51.1°F10.6°C 78% 5.4 mph S8.7 kmh S 6.3 mph10.1 kmh 30.13 in1020.3 mb 0.00 in0.0 mm 0.00 in/hr0.0 mm/hr 0.00 in0.0 mm
03:40 AM 58.0°F14.4°C 50.8°F10.4°C 77% 4.3 mph S6.9 kmh S 5.3 mph8.5 kmh 30.13 in1020.3 mb 0.00 in0.0 mm 0.00 in/hr0.0 mm/hr 0.00 in0.0 mm
03:30 AM 58.0°F14.4°C 51.2°F10.7°C 78% 4.3 mph S6.9 kmh S 5.3 mph8.5 kmh 30.13 in1020.3 mb 0.00 in0.0 mm 0.00 in/hr0.0 mm/hr 0.00 in0.0 mm
03:20 AM 58.1°F14.5°C 50.9°F10.5°C 77% 4.9 mph S7.9 kmh S 5.8 mph9.3 kmh 30.13 in1020.3 mb 0.00 in0.0 mm 0.00 in/hr0.0 mm/hr 0.00 in0.0 mm
03:10 AM 58.3°F14.6°C 51.1°F10.6°C 77% 3.2 mph S5.1 kmh S 4.0 mph6.4 kmh 30.13 in1020.3 mb 0.00 in0.0 mm 0.00 in/hr0.0 mm/hr 0.00 in0.0 mm
03:00 AM 58.3°F14.6°C 50.8°F10.4°C 76% 3.3 mph S5.3 kmh S 4.7 mph7.6 kmh 30.13 in1020.3 mb 0.00 in0.0 mm 0.00 in/hr0.0 mm/hr 0.00 in0.0 mm
02:50 AM 58.5°F14.7°C 51.0°F10.6°C 76% 4.3 mph S6.9 kmh S 5.5 mph8.9 kmh 30.13 in1020.3 mb 0.00 in0.0 mm 0.00 in/hr0.0 mm/hr 0.00 in0.0 mm
02:40 AM 58.5°F14.7°C 51.0°F10.6°C 76% 4.5 mph S7.2 kmh S 6.0 mph9.7 kmh 30.14 in1020.7 mb 0.00 in0.0 mm 0.00 in/hr0.0 mm/hr 0.00 in0.0 mm
02:30 AM 58.7°F14.8°C 51.1°F10.6°C 76% 4.1 mph S6.6 kmh S 5.1 mph8.2 kmh 30.14 in1020.7 mb 0.00 in0.0 mm 0.00 in/hr0.0 mm/hr 0.00 in0.0 mm
02:20 AM 58.6°F14.8°C 51.1°F10.6°C 76% 4.5 mph S7.2 kmh S 6.2 mph10.0 kmh 30.14 in1020.7 mb 0.00 in0.0 mm 0.00 in/hr0.0 mm/hr 0.00 in0.0 mm
02:10 AM 58.5°F14.7°C 51.0°F10.6°C 76% 3.9 mph S6.3 kmh S 5.2 mph8.4 kmh 30.14 in1020.7 mb 0.00 in0.0 mm 0.00 in/hr0.0 mm/hr 0.00 in0.0 mm
02:00 AM 58.4°F14.7°C 50.9°F10.5°C 76% 4.0 mph S6.4 kmh S 5.0 mph8.0 kmh 30.14 in1020.7 mb 0.00 in0.0 mm 0.00 in/hr0.0 mm/hr 0.00 in0.0 mm
01:50 AM 58.4°F14.7°C 50.9°F10.5°C 76% 5.1 mph S8.2 kmh S 6.7 mph10.8 kmh 30.14 in1020.7 mb 0.00 in0.0 mm 0.00 in/hr0.0 mm/hr 0.00 in0.0 mm
01:40 AM 58.7°F14.8°C 51.1°F10.6°C 76% 5.0 mph S8.0 kmh S 5.5 mph8.9 kmh 30.14 in1020.7 mb 0.00 in0.0 mm 0.00 in/hr0.0 mm/hr 0.00 in0.0 mm
01:30 AM 58.7°F14.8°C 51.2°F10.7°C 76% 3.3 mph S5.3 kmh S 4.5 mph7.2 kmh 30.14 in1020.7 mb 0.00 in0.0 mm 0.00 in/hr0.0 mm/hr 0.00 in0.0 mm
01:20 AM 58.8°F14.9°C 51.3°F10.7°C 76% 3.3 mph SSW5.3 kmh SSW 5.0 mph8.0 kmh 30.14 in1020.7 mb 0.00 in0.0 mm 0.00 in/hr0.0 mm/hr 0.00 in0.0 mm
01:10 AM 59.1°F15.1°C 51.5°F10.8°C 76% 1.6 mph SSW2.6 kmh SSW 3.4 mph5.5 kmh 30.14 in1020.7 mb 0.00 in0.0 mm 0.00 in/hr0.0 mm/hr 0.00 in0.0 mm
01:00 AM 59.1°F15.1°C 51.6°F10.9°C 76% 3.9 mph S6.3 kmh S 4.4 mph7.1 kmh 30.14 in1020.7 mb 0.00 in0.0 mm 0.00 in/hr0.0 mm/hr 0.00 in0.0 mm